Wilson Volos — V2FD5 — position and weather

sailwx.info

Track history (hours):
 
Tides and Currents Weather Stations Pressure Air Temp Water Temp Dewpoint Dewpoint Depression Visibility Wind Speed Wind Dir Waves Ship Positions

Wilson Volos

Last reported at 2018-Jun-21 09:08 UTC. Time now 2018-Jun-25 15:43 UTC.
Position N 67°33' E 015°13'.

Length 114 m; draft 5.4 m.

Type: Cargo ship. MMSI: 305641000.

Date/timePositionNaut miles runAvg speedWind from/ knotsBaromVisibWave heightAir tempDewpointWater temp
2018-Jun-21 09:08N 67°33' E 015°13'210.8
2018-Jun-21 08:56N 67°35' E 015°09'4 9.4
2018-Jun-21 08:30N 67°36' E 014°58'611.1
2018-Jun-21 08:00N 67°33' E 014°46'511.0
2018-Jun-21 07:30N 67°30' E 014°33'5 9.7
2018-Jun-21 07:00N 67°30' E 014°20'4 7.0
2018-Jun-21 06:30N 67°30' E 014°11'3 7.0
2018-Jun-21 06:00N 67°30' E 014°02'4 7.0
2018-Jun-21 05:30N 67°30' E 013°53'3 6.5
2018-Jun-21 05:00N 67°29' E 013°45'4 7.1
2018-Jun-21 04:30N 67°26' E 013°39'4 7.6
2018-Jun-21 04:00N 67°23' E 013°33'5 8.8
2018-Jun-21 03:29N 67°19' E 013°25'5 8.9
2018-Jun-21 02:59N 67°16' E 013°18'4 8.7
2018-Jun-21 02:30N 67°13' E 013°11'5 8.9
2018-Jun-21 01:59N 67°09' E 013°04'4 9.3
2018-Jun-21 01:30N 67°06' E 012°56'5 9.4
2018-Jun-21 01:00N 67°02' E 012°49'5 9.5
2018-Jun-21 00:30N 66°58' E 012°41'18 9.2
2018-Jun-20 22:34N 66°45' E 012°11'1 9.7
2018-Jun-20 22:29N 66°44' E 012°10'4 9.6
2018-Jun-20 22:00N 66°41' E 012°03'5 9.6
2018-Jun-20 21:30N 66°37' E 011°55'510.0
2018-Jun-20 21:00N 66°33' E 011°48'510.4
2018-Jun-20 20:30N 66°29' E 011°41'4 8.1
2018-Jun-20 20:00N 66°25' E 011°44'5 9.9
2018-Jun-20 19:30N 66°21' E 011°53'5 9.6
2018-Jun-20 19:00N 66°18' E 012°02'4 8.8
2018-Jun-20 18:30N 66°17' E 012°13'4 8.6
2018-Jun-20 18:00N 66°16' E 012°23'5 9.6
2018-Jun-20 17:30N 66°15' E 012°34'4 9.0
2018-Jun-20 17:00N 66°11' E 012°39'611.4
2018-Jun-20 16:30N 66°05' E 012°40'3 6.4
2018-Jun-20 15:58N 66°02' E 012°44'510.0
2018-Jun-20 15:30N 66°03' E 012°56'7 9.0
2018-Jun-20 14:43N 65°56' E 013°01'211.1
2018-Jun-20 14:30N 65°55' E 013°06'4 6.6
2018-Jun-20 13:51N 65°51' E 013°11'0 0.0
2018-Jun-20 13:24N 65°51' E 013°11'0 0.0
2018-Jun-20 12:48N 65°51' E 013°11'0 0.0
2018-Jun-20 12:30N 65°51' E 013°11'0 0.0
2018-Jun-20 11:57N 65°51' E 013°11'0 0.0
2018-Jun-20 11:27N 65°51' E 013°11'0 0.0
2018-Jun-20 10:57N 65°51' E 013°11'0 0.0
2018-Jun-20 10:27N 65°51' E 013°11'0 0.0
2018-Jun-20 09:57N 65°51' E 013°11'0 0.0
2018-Jun-20 09:24N 65°51' E 013°11'0 0.0
2018-Jun-20 09:00N 65°51' E 013°11'0 0.0
2018-Jun-20 08:27N 65°51' E 013°11'0 0.0
2018-Jun-20 07:57N 65°51' E 013°11'0 0.0
2018-Jun-20 07:21N 65°51' E 013°11'0 0.0
2018-Jun-20 06:48N 65°51' E 013°11'0 0.0
2018-Jun-20 06:27N 65°51' E 013°11'0 0.0
2018-Jun-20 06:00N 65°51' E 013°11'0 0.0
2018-Jun-20 05:27N 65°51' E 013°11'0 0.0
2018-Jun-20 04:45N 65°51' E 013°11'0 0.0
2018-Jun-20 04:27N 65°51' E 013°11'0 0.0
2018-Jun-20 03:57N 65°51' E 013°11'0 0.0
2018-Jun-20 03:27N 65°51' E 013°11'0 0.0
2018-Jun-20 02:57N 65°51' E 013°11'0 0.0
2018-Jun-20 02:27N 65°51' E 013°11'0 0.0
2018-Jun-20 01:51N 65°51' E 013°11'0 0.0
2018-Jun-20 01:15N 65°51' E 013°11'0 0.0
2018-Jun-20 01:00N 65°51' E 013°11'0 0.0
2018-Jun-19 23:57N 65°51' E 013°11'0 0.0
2018-Jun-19 23:24N 65°51' E 013°11'0 0.0
2018-Jun-19 22:27N 65°51' E 013°11'0 0.0
2018-Jun-19 21:51N 65°51' E 013°11'0 0.0
2018-Jun-19 21:09N 65°51' E 013°11'0 0.0
2018-Jun-19 20:45N 65°51' E 013°11'0 0.0
2018-Jun-19 18:48N 65°51' E 013°11'0 0.0
2018-Jun-19 18:18N 65°51' E 013°11'0 0.0
2018-Jun-19 17:39N 65°51' E 013°11'0 0.0
2018-Jun-19 17:18N 65°51' E 013°11'0 0.0
2018-Jun-19 16:51N 65°51' E 013°11'0 0.0
2018-Jun-19 16:15N 65°51' E 013°11'0 0.0
2018-Jun-19 15:21N 65°51' E 013°11'0 0.0
2018-Jun-19 05:42N 65°51' E 013°11'0 0.0
2018-Jun-19 05:12N 65°51' E 013°11'0 0.0
2018-Jun-19 05:00N 65°51' E 013°11'0 0.0
2018-Jun-19 04:30N 65°51' E 013°11'0 0.0
2018-Jun-19 04:00N 65°51' E 013°11'0 0.0
2018-Jun-19 03:30N 65°51' E 013°11'0 0.0
2018-Jun-19 03:00N 65°51' E 013°11'0 0.0
2018-Jun-19 02:30N 65°51' E 013°11'0 0.0
2018-Jun-19 02:00N 65°51' E 013°11'0 0.0
2018-Jun-19 01:30N 65°51' E 013°11'0 0.0
2018-Jun-19 01:00N 65°51' E 013°11'0 0.0
2018-Jun-19 00:27N 65°51' E 013°11'0 0.0
2018-Jun-18 23:09N 65°51' E 013°11'0 0.0
2018-Jun-18 21:39N 65°51' E 013°11'0 0.0
2018-Jun-18 21:21N 65°51' E 013°11'0 0.0
2018-Jun-18 20:57N 65°51' E 013°11'0 0.0
2018-Jun-18 20:27N 65°51' E 013°11'0 0.0
2018-Jun-18 19:57N 65°51' E 013°11'0 0.0
2018-Jun-18 19:27N 65°51' E 013°11'0 0.0
2018-Jun-18 18:57N 65°51' E 013°11'0 0.0
2018-Jun-18 18:27N 65°51' E 013°11'0 0.0
2018-Jun-18 17:57N 65°51' E 013°11'0 0.0
2018-Jun-18 14:33N 65°51' E 013°11'0 0.0
2018-Jun-18 14:27N 65°51' E 013°11'0 0.0
2018-Jun-18 13:57N 65°51' E 013°11'0 0.0
2018-Jun-18 13:24N 65°51' E 013°11'0 0.0
2018-Jun-18 11:15N 65°51' E 013°11'0 0.0
2018-Jun-18 10:57N 65°51' E 013°11'0 0.0
2018-Jun-18 10:27N 65°51' E 013°11'0 0.0
2018-Jun-18 09:57N 65°51' E 013°11'0 0.0
2018-Jun-18 09:27N 65°51' E 013°11'0 0.0
2018-Jun-18 08:51N 65°51' E 013°11'0 0.0
2018-Jun-18 08:15N 65°51' E 013°11'0 0.0
2018-Jun-17 14:21N 65°51' E 013°11'0 0.0
2018-Jun-17 13:57N 65°51' E 013°11'0 0.0
2018-Jun-17 13:27N 65°51' E 013°11'0 0.0
2018-Jun-17 12:57N 65°51' E 013°11'0 0.0
2018-Jun-17 12:21N 65°51' E 013°11'0 0.0
2018-Jun-17 12:00N 65°51' E 013°11'0 0.6
2018-Jun-17 11:30N 65°51' E 013°11'4 9.1
2018-Jun-17 11:00N 65°55' E 013°05'611.1
2018-Jun-17 10:30N 65°58' E 012°53'4 9.1
2018-Jun-17 10:00N 66°03' E 012°55'610.9
2018-Jun-17 09:30N 66°02' E 012°42'4 7.3
2018-Jun-17 09:00N 66°06' E 012°40'510.9
2018-Jun-17 08:30N 66°11' E 012°39'5 9.6
2018-Jun-17 08:00N 66°15' E 012°31'510.5
2018-Jun-17 07:31N 66°16' E 012°19'5 9.9
2018-Jun-17 07:01N 66°17' E 012°06'510.8
2018-Jun-17 06:31N 66°16' E 011°53'510.0
2018-Jun-17 06:00N 66°15' E 011°41'16610.7
2018-Jun-16 14:33N 63°57' E 007°60'011.0
2018-Jun-16 14:31N 63°57' E 007°59'611.3
2018-Jun-16 14:00N 63°53' E 007°51'611.0
2018-Jun-16 13:30N 63°48' E 007°44'510.1
2018-Jun-16 13:00N 63°44' E 007°37'5 9.6
2018-Jun-16 12:31N 63°40' E 007°31'5 8.8
2018-Jun-16 12:00N 63°37' E 007°24'4 8.5
2018-Jun-16 11:30N 63°34' E 007°17'5 9.5
2018-Jun-16 11:00N 63°30' E 007°11'510.1
2018-Jun-16 10:30N 63°26' E 007°04'510.0
2018-Jun-16 10:00N 63°22' E 006°57'2710.3
2018-Jun-16 07:21N 63°03' E 006°14'4 9.9
2018-Jun-16 07:00N 63°00' E 006°09'510.0
2018-Jun-16 06:30N 62°57' E 006°00'510.2
2018-Jun-16 06:00N 62°54' E 005°51'510.1
2018-Jun-16 05:30N 62°51' E 005°43'5 9.7
2018-Jun-16 05:00N 62°47' E 005°36'5 9.7
2018-Jun-16 04:30N 62°44' E 005°28'5 9.7
2018-Jun-16 04:00N 62°40' E 005°21'5 9.4
2018-Jun-16 03:30N 62°37' E 005°14'5 9.2
2018-Jun-16 02:59N 62°33' E 005°07'5 9.3
2018-Jun-16 02:29N 62°30' E 005°01'4 9.0
2018-Jun-16 02:00N 62°27' E 004°54'5 8.7
2018-Jun-16 01:29N 62°23' E 004°49'4 8.9
2018-Jun-16 01:00N 62°19' E 004°44'4 8.9
2018-Jun-16 00:30N 62°15' E 004°40'5 9.0
2018-Jun-16 00:00N 62°11' E 004°38'5 9.1
2018-Jun-15 23:30N 62°07' E 004°35'5 9.3
2018-Jun-15 23:00N 62°02' E 004°32'5 9.3
2018-Jun-15 22:30N 61°58' E 004°28'5 9.4
2018-Jun-15 22:00N 61°53' E 004°25'39 9.2
2018-Jun-15 17:44N 61°14' E 004°17'2 9.4
2018-Jun-15 17:30N 61°12' E 004°17'5 9.3
2018-Jun-15 17:00N 61°07' E 004°17'5 9.3
2018-Jun-15 16:30N 61°03' E 004°17'5 9.2
2018-Jun-15 15:59N 60°58' E 004°17'5 9.4
2018-Jun-15 15:30N 60°53' E 004°17'5 9.3
2018-Jun-15 14:59N 60°49' E 004°18'4 9.2
2018-Jun-15 14:31N 60°44' E 004°19'97 8.6
2018-Jun-15 03:13N 59°08' E 004°44'3 7.6
2018-Jun-15 02:50N 59°06' E 004°46'4 7.7
2018-Jun-15 02:19N 59°02' E 004°49'3 7.7
2018-Jun-15 01:53N 58°59' E 004°51'3 8.1
2018-Jun-15 01:30N 58°56' E 004°51'4 8.4
2018-Jun-15 01:00N 58°52' E 004°51'4 8.4
2018-Jun-15 00:30N 58°47' E 004°52'4 8.2
2018-Jun-14 23:58N 58°43' E 004°53'4 7.6
2018-Jun-14 23:28N 58°39' E 004°54'4 7.6
2018-Jun-14 22:58N 58°36' E 004°56'303 9.4
2018-Jun-13 14:42N 53°32' E 004°48'3 9.8
2018-Jun-13 14:25N 53°30' E 004°47'4 9.5
2018-Jun-13 13:58N 53°26' E 004°44'24 8.7
2018-Jun-13 11:12N 53°05' E 004°25'2 8.2
2018-Jun-13 11:01N 53°03' E 004°24'5 7.9
2018-Jun-13 10:25N 52°59' E 004°21'30 8.2
2018-Jun-13 06:42N 52°35' E 003°51'7 8.7
2018-Jun-13 05:54N 52°30' E 003°43'4 9.3
2018-Jun-13 05:27N 52°27' E 003°38'5 9.3
2018-Jun-13 04:56N 52°22' E 003°34'510.0
2018-Jun-13 04:27N 52°18' E 003°32'510.4
2018-Jun-13 04:00N 52°13' E 003°29'610.6
2018-Jun-13 03:28N 52°08' E 003°27'510.7
2018-Jun-13 02:59N 52°03' E 003°25'28 9.7
2018-Jun-13 00:05N 51°35' E 003°24'110.7
2018-Jun-13 00:01N 51°34' E 003°25'510.3
2018-Jun-12 23:30N 51°30' E 003°29'4 8.3
2018-Jun-12 23:00N 51°27' E 003°33'4 7.7
2018-Jun-12 22:30N 51°27' E 003°40'2 3.0
2018-Jun-12 21:55N 51°27' E 003°42'0 0.0
2018-Jun-12 21:22N 51°27' E 003°42'0 0.0
2018-Jun-12 20:40N 51°27' E 003°42'0 0.0
2018-Jun-12 20:28N 51°27' E 003°42'0 0.0
2018-Jun-12 19:46N 51°27' E 003°42'0 0.0
2018-Jun-12 19:16N 51°27' E 003°42'0 0.0
2018-Jun-12 18:31N 51°27' E 003°42'0 0.0
2018-Jun-12 18:19N 51°27' E 003°42'0 0.0
2018-Jun-12 17:52N 51°27' E 003°42'0 0.0
2018-Jun-12 17:28N 51°27' E 003°42'0 0.0
2018-Jun-12 16:58N 51°27' E 003°42'0 0.0
2018-Jun-12 16:07N 51°27' E 003°42'0 0.0
2018-Jun-12 15:52N 51°27' E 003°42'0 0.0
2018-Jun-12 15:28N 51°27' E 003°42'0 0.0
2018-Jun-12 14:58N 51°27' E 003°42'0 0.0
2018-Jun-12 14:28N 51°27' E 003°42'0 0.0
2018-Jun-12 13:58N 51°27' E 003°42'0 0.0
2018-Jun-12 13:22N 51°27' E 003°42'0 0.0
2018-Jun-12 12:58N 51°27' E 003°42'0 0.0
2018-Jun-12 12:22N 51°27' E 003°42'0 0.0
2018-Jun-12 11:40N 51°27' E 003°42'0 0.0
2018-Jun-12 11:22N 51°27' E 003°42'0 0.0
2018-Jun-12 10:55N 51°27' E 003°42'0 0.7
2018-Jun-12 10:30N 51°27' E 003°42'3 5.5
2018-Jun-12 10:00N 51°24' E 003°43'5 9.1
2018-Jun-12 09:30N 51°21' E 003°48'1 2.7
2018-Jun-12 09:00N 51°20' E 003°49'0 0.7
2018-Jun-12 08:30N 51°20' E 003°49'1 1.4
2018-Jun-12 08:00N 51°19' E 003°50'3 5.4
2018-Jun-12 07:30N 51°16' E 003°50'4 7.4
2018-Jun-12 07:00N 51°13' E 003°48'4 7.7
2018-Jun-12 06:31N 51°09' E 003°47'0 0.2
2018-Jun-12 06:00N 51°09' E 003°47'0 0.0
2018-Jun-12 05:30N 51°09' E 003°47'0 0.0
2018-Jun-12 04:57N 51°09' E 003°47'0 0.0
2018-Jun-12 04:30N 51°09' E 003°47'0 0.0
2018-Jun-12 04:00N 51°09' E 003°47'0 0.0
2018-Jun-12 03:30N 51°09' E 003°47'0 0.0
2018-Jun-12 03:00N 51°09' E 003°47'0 0.0
2018-Jun-12 02:30N 51°09' E 003°47'0 0.0
2018-Jun-12 02:00N 51°09' E 003°47'0 0.0
2018-Jun-12 01:30N 51°09' E 003°47'0 0.0
2018-Jun-12 01:00N 51°09' E 003°47'0 0.0
2018-Jun-12 00:30N 51°09' E 003°47'0 0.0
2018-Jun-11 23:51N 51°09' E 003°47'0 0.0
2018-Jun-11 23:30N 51°09' E 003°47'0 0.0
2018-Jun-11 22:57N 51°09' E 003°47'0 0.0
2018-Jun-11 22:27N 51°09' E 003°47'0 0.0
2018-Jun-11 21:57N 51°09' E 003°47'0 0.0
2018-Jun-11 21:30N 51°09' E 003°47'0 0.0
2018-Jun-11 20:51N 51°09' E 003°47'0 0.0
2018-Jun-11 20:24N 51°09' E 003°47'0 0.0
2018-Jun-11 19:57N 51°09' E 003°47'0 0.0
2018-Jun-11 19:21N 51°09' E 003°47'0 0.0
2018-Jun-11 19:00N 51°09' E 003°47'0 0.0
2018-Jun-11 18:30N 51°09' E 003°47'0 0.0
2018-Jun-11 17:57N 51°09' E 003°47'0 0.0
2018-Jun-11 17:27N 51°09' E 003°47'0 0.0
2018-Jun-11 16:57N 51°09' E 003°47'0 0.0
2018-Jun-11 16:27N 51°09' E 003°47'0 0.0
2018-Jun-11 15:58N 51°09' E 003°47'0 0.0
2018-Jun-11 15:28N 51°09' E 003°47'0 0.0
2018-Jun-11 14:58N 51°09' E 003°47'0 0.0
2018-Jun-11 14:29N 51°09' E 003°47'0 0.0
2018-Jun-11 13:55N 51°09' E 003°47'0 0.0
2018-Jun-11 13:22N 51°09' E 003°47'0 0.0
2018-Jun-11 12:55N 51°09' E 003°47'0 0.0
2018-Jun-11 12:28N 51°09' E 003°47'0 0.0
2018-Jun-11 11:52N 51°09' E 003°47'0 0.0
2018-Jun-11 11:22N 51°09' E 003°47'0 0.0
2018-Jun-11 10:55N 51°09' E 003°47'0 0.0
2018-Jun-11 10:28N 51°09' E 003°47'0 0.0
2018-Jun-11 09:58N 51°09' E 003°47'0 0.0
2018-Jun-11 09:19N 51°09' E 003°47'  
Track history (hours):
 
Tides and Currents Weather Stations Pressure Air Temp Water Temp Dewpoint Dewpoint Depression Visibility Wind Speed Wind Dir Waves Ship Positions

Wilson Volos

Last reported at 2018-Jun-21 09:08 UTC. Time now 2018-Jun-25 15:43 UTC.
Position N 67°33' E 015°13'.

Length 114 m; draft 5.4 m.

Type: Cargo ship. MMSI: 305641000.

Date/timePositionNaut miles runAvg speedWind from/ knotsBaromVisibWave heightAir tempDewpointWater temp
2018-Jun-21 09:08N 67°33' E 015°13'210.8
2018-Jun-21 08:56N 67°35' E 015°09'4 9.4
2018-Jun-21 08:30N 67°36' E 014°58'611.1
2018-Jun-21 08:00N 67°33' E 014°46'511.0
2018-Jun-21 07:30N 67°30' E 014°33'5 9.7
2018-Jun-21 07:00N 67°30' E 014°20'4 7.0
2018-Jun-21 06:30N 67°30' E 014°11'3 7.0
2018-Jun-21 06:00N 67°30' E 014°02'4 7.0
2018-Jun-21 05:30N 67°30' E 013°53'3 6.5
2018-Jun-21 05:00N 67°29' E 013°45'4 7.1
2018-Jun-21 04:30N 67°26' E 013°39'4 7.6
2018-Jun-21 04:00N 67°23' E 013°33'5 8.8
2018-Jun-21 03:29N 67°19' E 013°25'5 8.9
2018-Jun-21 02:59N 67°16' E 013°18'4 8.7
2018-Jun-21 02:30N 67°13' E 013°11'5 8.9
2018-Jun-21 01:59N 67°09' E 013°04'4 9.3
2018-Jun-21 01:30N 67°06' E 012°56'5 9.4
2018-Jun-21 01:00N 67°02' E 012°49'5 9.5
2018-Jun-21 00:30N 66°58' E 012°41'18 9.2
2018-Jun-20 22:34N 66°45' E 012°11'1 9.7
2018-Jun-20 22:29N 66°44' E 012°10'4 9.6
2018-Jun-20 22:00N 66°41' E 012°03'5 9.6
2018-Jun-20 21:30N 66°37' E 011°55'510.0
2018-Jun-20 21:00N 66°33' E 011°48'510.4
2018-Jun-20 20:30N 66°29' E 011°41'4 8.1
2018-Jun-20 20:00N 66°25' E 011°44'5 9.9
2018-Jun-20 19:30N 66°21' E 011°53'5 9.6
2018-Jun-20 19:00N 66°18' E 012°02'4 8.8
2018-Jun-20 18:30N 66°17' E 012°13'4 8.6
2018-Jun-20 18:00N 66°16' E 012°23'5 9.6
2018-Jun-20 17:30N 66°15' E 012°34'4 9.0
2018-Jun-20 17:00N 66°11' E 012°39'611.4
2018-Jun-20 16:30N 66°05' E 012°40'3 6.4
2018-Jun-20 15:58N 66°02' E 012°44'510.0
2018-Jun-20 15:30N 66°03' E 012°56'7 9.0
2018-Jun-20 14:43N 65°56' E 013°01'211.1
2018-Jun-20 14:30N 65°55' E 013°06'4 6.6
2018-Jun-20 13:51N 65°51' E 013°11'0 0.0
2018-Jun-20 13:24N 65°51' E 013°11'0 0.0
2018-Jun-20 12:48N 65°51' E 013°11'0 0.0
2018-Jun-20 12:30N 65°51' E 013°11'0 0.0
2018-Jun-20 11:57N 65°51' E 013°11'0 0.0
2018-Jun-20 11:27N 65°51' E 013°11'0 0.0
2018-Jun-20 10:57N 65°51' E 013°11'0 0.0
2018-Jun-20 10:27N 65°51' E 013°11'0 0.0
2018-Jun-20 09:57N 65°51' E 013°11'0 0.0
2018-Jun-20 09:24N 65°51' E 013°11'0 0.0
2018-Jun-20 09:00N 65°51' E 013°11'0 0.0
2018-Jun-20 08:27N 65°51' E 013°11'0 0.0
2018-Jun-20 07:57N 65°51' E 013°11'0 0.0
2018-Jun-20 07:21N 65°51' E 013°11'0 0.0
2018-Jun-20 06:48N 65°51' E 013°11'0 0.0
2018-Jun-20 06:27N 65°51' E 013°11'0 0.0
2018-Jun-20 06:00N 65°51' E 013°11'0 0.0
2018-Jun-20 05:27N 65°51' E 013°11'0 0.0
2018-Jun-20 04:45N 65°51' E 013°11'0 0.0
2018-Jun-20 04:27N 65°51' E 013°11'0 0.0
2018-Jun-20 03:57N 65°51' E 013°11'0 0.0
2018-Jun-20 03:27N 65°51' E 013°11'0 0.0
2018-Jun-20 02:57N 65°51' E 013°11'0 0.0
2018-Jun-20 02:27N 65°51' E 013°11'0 0.0
2018-Jun-20 01:51N 65°51' E 013°11'0 0.0
2018-Jun-20 01:15N 65°51' E 013°11'0 0.0
2018-Jun-20 01:00N 65°51' E 013°11'0 0.0
2018-Jun-19 23:57N 65°51' E 013°11'0 0.0
2018-Jun-19 23:24N 65°51' E 013°11'0 0.0
2018-Jun-19 22:27N 65°51' E 013°11'0 0.0
2018-Jun-19 21:51N 65°51' E 013°11'0 0.0
2018-Jun-19 21:09N 65°51' E 013°11'0 0.0
2018-Jun-19 20:45N 65°51' E 013°11'0 0.0
2018-Jun-19 18:48N 65°51' E 013°11'0 0.0
2018-Jun-19 18:18N 65°51' E 013°11'0 0.0
2018-Jun-19 17:39N 65°51' E 013°11'0 0.0
2018-Jun-19 17:18N 65°51' E 013°11'0 0.0
2018-Jun-19 16:51N 65°51' E 013°11'0 0.0
2018-Jun-19 16:15N 65°51' E 013°11'0 0.0
2018-Jun-19 15:21N 65°51' E 013°11'0 0.0
2018-Jun-19 05:42N 65°51' E 013°11'0 0.0
2018-Jun-19 05:12N 65°51' E 013°11'0 0.0
2018-Jun-19 05:00N 65°51' E 013°11'0 0.0
2018-Jun-19 04:30N 65°51' E 013°11'0 0.0
2018-Jun-19 04:00N 65°51' E 013°11'0 0.0
2018-Jun-19 03:30N 65°51' E 013°11'0 0.0
2018-Jun-19 03:00N 65°51' E 013°11'0 0.0
2018-Jun-19 02:30N 65°51' E 013°11'0 0.0
2018-Jun-19 02:00N 65°51' E 013°11'0 0.0
2018-Jun-19 01:30N 65°51' E 013°11'0 0.0
2018-Jun-19 01:00N 65°51' E 013°11'0 0.0
2018-Jun-19 00:27N 65°51' E 013°11'0 0.0
2018-Jun-18 23:09N 65°51' E 013°11'0 0.0
2018-Jun-18 21:39N 65°51' E 013°11'0 0.0
2018-Jun-18 21:21N 65°51' E 013°11'0 0.0
2018-Jun-18 20:57N 65°51' E 013°11'0 0.0
2018-Jun-18 20:27N 65°51' E 013°11'0 0.0
2018-Jun-18 19:57N 65°51' E 013°11'0 0.0
2018-Jun-18 19:27N 65°51' E 013°11'0 0.0
2018-Jun-18 18:57N 65°51' E 013°11'0 0.0
2018-Jun-18 18:27N 65°51' E 013°11'0 0.0
2018-Jun-18 17:57N 65°51' E 013°11'0 0.0
2018-Jun-18 14:33N 65°51' E 013°11'0 0.0
2018-Jun-18 14:27N 65°51' E 013°11'0 0.0
2018-Jun-18 13:57N 65°51' E 013°11'0 0.0
2018-Jun-18 13:24N 65°51' E 013°11'0 0.0
2018-Jun-18 11:15N 65°51' E 013°11'0 0.0
2018-Jun-18 10:57N 65°51' E 013°11'0 0.0
2018-Jun-18 10:27N 65°51' E 013°11'0 0.0
2018-Jun-18 09:57N 65°51' E 013°11'0 0.0
2018-Jun-18 09:27N 65°51' E 013°11'0 0.0
2018-Jun-18 08:51N 65°51' E 013°11'0 0.0
2018-Jun-18 08:15N 65°51' E 013°11'0 0.0
2018-Jun-17 14:21N 65°51' E 013°11'0 0.0
2018-Jun-17 13:57N 65°51' E 013°11'0 0.0
2018-Jun-17 13:27N 65°51' E 013°11'0 0.0
2018-Jun-17 12:57N 65°51' E 013°11'0 0.0
2018-Jun-17 12:21N 65°51' E 013°11'0 0.0
2018-Jun-17 12:00N 65°51' E 013°11'0 0.6
2018-Jun-17 11:30N 65°51' E 013°11'4 9.1
2018-Jun-17 11:00N 65°55' E 013°05'611.1
2018-Jun-17 10:30N 65°58' E 012°53'4 9.1
2018-Jun-17 10:00N 66°03' E 012°55'610.9
2018-Jun-17 09:30N 66°02' E 012°42'4 7.3
2018-Jun-17 09:00N 66°06' E 012°40'510.9
2018-Jun-17 08:30N 66°11' E 012°39'5 9.6
2018-Jun-17 08:00N 66°15' E 012°31'510.5
2018-Jun-17 07:31N 66°16' E 012°19'5 9.9
2018-Jun-17 07:01N 66°17' E 012°06'510.8
2018-Jun-17 06:31N 66°16' E 011°53'510.0
2018-Jun-17 06:00N 66°15' E 011°41'16610.7
2018-Jun-16 14:33N 63°57' E 007°60'011.0
2018-Jun-16 14:31N 63°57' E 007°59'611.3
2018-Jun-16 14:00N 63°53' E 007°51'611.0
2018-Jun-16 13:30N 63°48' E 007°44'510.1
2018-Jun-16 13:00N 63°44' E 007°37'5 9.6
2018-Jun-16 12:31N 63°40' E 007°31'5 8.8
2018-Jun-16 12:00N 63°37' E 007°24'4 8.5
2018-Jun-16 11:30N 63°34' E 007°17'5 9.5
2018-Jun-16 11:00N 63°30' E 007°11'510.1
2018-Jun-16 10:30N 63°26' E 007°04'510.0
2018-Jun-16 10:00N 63°22' E 006°57'2710.3
2018-Jun-16 07:21N 63°03' E 006°14'4 9.9
2018-Jun-16 07:00N 63°00' E 006°09'510.0
2018-Jun-16 06:30N 62°57' E 006°00'510.2
2018-Jun-16 06:00N 62°54' E 005°51'510.1
2018-Jun-16 05:30N 62°51' E 005°43'5 9.7
2018-Jun-16 05:00N 62°47' E 005°36'5 9.7
2018-Jun-16 04:30N 62°44' E 005°28'5 9.7
2018-Jun-16 04:00N 62°40' E 005°21'5 9.4
2018-Jun-16 03:30N 62°37' E 005°14'5 9.2
2018-Jun-16 02:59N 62°33' E 005°07'5 9.3
2018-Jun-16 02:29N 62°30' E 005°01'4 9.0
2018-Jun-16 02:00N 62°27' E 004°54'5 8.7
2018-Jun-16 01:29N 62°23' E 004°49'4 8.9
2018-Jun-16 01:00N 62°19' E 004°44'4 8.9
2018-Jun-16 00:30N 62°15' E 004°40'5 9.0
2018-Jun-16 00:00N 62°11' E 004°38'5 9.1
2018-Jun-15 23:30N 62°07' E 004°35'5 9.3
2018-Jun-15 23:00N 62°02' E 004°32'5 9.3
2018-Jun-15 22:30N 61°58' E 004°28'5 9.4
2018-Jun-15 22:00N 61°53' E 004°25'39 9.2
2018-Jun-15 17:44N 61°14' E 004°17'2 9.4
2018-Jun-15 17:30N 61°12' E 004°17'5 9.3
2018-Jun-15 17:00N 61°07' E 004°17'5 9.3
2018-Jun-15 16:30N 61°03' E 004°17'5 9.2
2018-Jun-15 15:59N 60°58' E 004°17'5 9.4
2018-Jun-15 15:30N 60°53' E 004°17'5 9.3
2018-Jun-15 14:59N 60°49' E 004°18'4 9.2
2018-Jun-15 14:31N 60°44' E 004°19'97 8.6
2018-Jun-15 03:13N 59°08' E 004°44'3 7.6
2018-Jun-15 02:50N 59°06' E 004°46'4 7.7
2018-Jun-15 02:19N 59°02' E 004°49'3 7.7
2018-Jun-15 01:53N 58°59' E 004°51'3 8.1
2018-Jun-15 01:30N 58°56' E 004°51'4 8.4
2018-Jun-15 01:00N 58°52' E 004°51'4 8.4
2018-Jun-15 00:30N 58°47' E 004°52'4 8.2
2018-Jun-14 23:58N 58°43' E 004°53'4 7.6
2018-Jun-14 23:28N 58°39' E 004°54'4 7.6
2018-Jun-14 22:58N 58°36' E 004°56'303 9.4
2018-Jun-13 14:42N 53°32' E 004°48'3 9.8
2018-Jun-13 14:25N 53°30' E 004°47'4 9.5
2018-Jun-13 13:58N 53°26' E 004°44'24 8.7
2018-Jun-13 11:12N 53°05' E 004°25'2 8.2
2018-Jun-13 11:01N 53°03' E 004°24'5 7.9
2018-Jun-13 10:25N 52°59' E 004°21'30 8.2
2018-Jun-13 06:42N 52°35' E 003°51'7 8.7
2018-Jun-13 05:54N 52°30' E 003°43'4 9.3
2018-Jun-13 05:27N 52°27' E 003°38'5 9.3
2018-Jun-13 04:56N 52°22' E 003°34'510.0
2018-Jun-13 04:27N 52°18' E 003°32'510.4
2018-Jun-13 04:00N 52°13' E 003°29'610.6
2018-Jun-13 03:28N 52°08' E 003°27'510.7
2018-Jun-13 02:59N 52°03' E 003°25'28 9.7
2018-Jun-13 00:05N 51°35' E 003°24'110.7
2018-Jun-13 00:01N 51°34' E 003°25'510.3
2018-Jun-12 23:30N 51°30' E 003°29'4 8.3
2018-Jun-12 23:00N 51°27' E 003°33'4 7.7
2018-Jun-12 22:30N 51°27' E 003°40'2 3.0
2018-Jun-12 21:55N 51°27' E 003°42'0 0.0
2018-Jun-12 21:22N 51°27' E 003°42'0 0.0
2018-Jun-12 20:40N 51°27' E 003°42'0 0.0
2018-Jun-12 20:28N 51°27' E 003°42'0 0.0
2018-Jun-12 19:46N 51°27' E 003°42'0 0.0
2018-Jun-12 19:16N 51°27' E 003°42'0 0.0
2018-Jun-12 18:31N 51°27' E 003°42'0 0.0
2018-Jun-12 18:19N 51°27' E 003°42'0 0.0
2018-Jun-12 17:52N 51°27' E 003°42'0 0.0
2018-Jun-12 17:28N 51°27' E 003°42'0 0.0
2018-Jun-12 16:58N 51°27' E 003°42'0 0.0
2018-Jun-12 16:07N 51°27' E 003°42'0 0.0
2018-Jun-12 15:52N 51°27' E 003°42'0 0.0
2018-Jun-12 15:28N 51°27' E 003°42'0 0.0
2018-Jun-12 14:58N 51°27' E 003°42'0 0.0
2018-Jun-12 14:28N 51°27' E 003°42'0 0.0
2018-Jun-12 13:58N 51°27' E 003°42'0 0.0
2018-Jun-12 13:22N 51°27' E 003°42'0 0.0
2018-Jun-12 12:58N 51°27' E 003°42'0 0.0
2018-Jun-12 12:22N 51°27' E 003°42'0 0.0
2018-Jun-12 11:40N 51°27' E 003°42'0 0.0
2018-Jun-12 11:22N 51°27' E 003°42'0 0.0
2018-Jun-12 10:55N 51°27' E 003°42'0 0.7
2018-Jun-12 10:30N 51°27' E 003°42'3 5.5
2018-Jun-12 10:00N 51°24' E 003°43'5 9.1
2018-Jun-12 09:30N 51°21' E 003°48'1 2.7
2018-Jun-12 09:00N 51°20' E 003°49'0 0.7
2018-Jun-12 08:30N 51°20' E 003°49'1 1.4
2018-Jun-12 08:00N 51°19' E 003°50'3 5.4
2018-Jun-12 07:30N 51°16' E 003°50'4 7.4
2018-Jun-12 07:00N 51°13' E 003°48'4 7.7
2018-Jun-12 06:31N 51°09' E 003°47'0 0.2
2018-Jun-12 06:00N 51°09' E 003°47'0 0.0
2018-Jun-12 05:30N 51°09' E 003°47'0 0.0
2018-Jun-12 04:57N 51°09' E 003°47'0 0.0
2018-Jun-12 04:30N 51°09' E 003°47'0 0.0
2018-Jun-12 04:00N 51°09' E 003°47'0 0.0
2018-Jun-12 03:30N 51°09' E 003°47'0 0.0
2018-Jun-12 03:00N 51°09' E 003°47'0 0.0
2018-Jun-12 02:30N 51°09' E 003°47'0 0.0
2018-Jun-12 02:00N 51°09' E 003°47'0 0.0
2018-Jun-12 01:30N 51°09' E 003°47'0 0.0
2018-Jun-12 01:00N 51°09' E 003°47'0 0.0
2018-Jun-12 00:30N 51°09' E 003°47'0 0.0
2018-Jun-11 23:51N 51°09' E 003°47'0 0.0
2018-Jun-11 23:30N 51°09' E 003°47'0 0.0
2018-Jun-11 22:57N 51°09' E 003°47'0 0.0
2018-Jun-11 22:27N 51°09' E 003°47'0 0.0
2018-Jun-11 21:57N 51°09' E 003°47'0 0.0
2018-Jun-11 21:30N 51°09' E 003°47'0 0.0
2018-Jun-11 20:51N 51°09' E 003°47'0 0.0
2018-Jun-11 20:24N 51°09' E 003°47'0 0.0
2018-Jun-11 19:57N 51°09' E 003°47'0 0.0
2018-Jun-11 19:21N 51°09' E 003°47'0 0.0
2018-Jun-11 19:00N 51°09' E 003°47'0 0.0
2018-Jun-11 18:30N 51°09' E 003°47'0 0.0
2018-Jun-11 17:57N 51°09' E 003°47'0 0.0
2018-Jun-11 17:27N 51°09' E 003°47'0 0.0
2018-Jun-11 16:57N 51°09' E 003°47'0 0.0
2018-Jun-11 16:27N 51°09' E 003°47'0 0.0
2018-Jun-11 15:58N 51°09' E 003°47'0 0.0
2018-Jun-11 15:28N 51°09' E 003°47'0 0.0
2018-Jun-11 14:58N 51°09' E 003°47'0 0.0
2018-Jun-11 14:29N 51°09' E 003°47'0 0.0
2018-Jun-11 13:55N 51°09' E 003°47'0 0.0
2018-Jun-11 13:22N 51°09' E 003°47'0 0.0
2018-Jun-11 12:55N 51°09' E 003°47'0 0.0
2018-Jun-11 12:28N 51°09' E 003°47'0 0.0
2018-Jun-11 11:52N 51°09' E 003°47'0 0.0
2018-Jun-11 11:22N 51°09' E 003°47'0 0.0
2018-Jun-11 10:55N 51°09' E 003°47'0 0.0
2018-Jun-11 10:28N 51°09' E 003°47'0 0.0
2018-Jun-11 09:58N 51°09' E 003°47'0 0.0
2018-Jun-11 09:19N 51°09' E 003°47'  

Dump ship's entire track history